createdAt,value
2017-12-05T00:00:32.363Z,36.70
2017-12-05T00:01:32.347Z,35.30
2017-12-05T00:02:32.328Z,35.70
2017-12-05T00:03:32.312Z,36.20
2017-12-05T00:04:32.299Z,34.80
2017-12-05T00:05:32.281Z,34.50
2017-12-05T00:06:32.268Z,30.90
2017-12-05T00:07:32.250Z,34.00
2017-12-05T00:08:32.229Z,34.40
2017-12-05T00:09:32.213Z,32.00
2017-12-05T00:10:32.195Z,35.60
2017-12-05T00:11:32.179Z,35.00
2017-12-05T00:12:32.166Z,31.50
2017-12-05T00:13:32.146Z,34.40
2017-12-05T00:14:32.130Z,34.70
2017-12-05T00:15:32.118Z,37.00
2017-12-05T00:16:32.096Z,33.30
2017-12-05T00:17:32.084Z,35.70
2017-12-05T00:18:32.061Z,33.50
2017-12-05T00:19:32.046Z,34.50
2017-12-05T00:20:32.029Z,33.80
2017-12-05T00:21:32.015Z,32.80
2017-12-05T00:22:32.000Z,33.60
2017-12-05T00:23:31.980Z,33.40
2017-12-05T00:24:31.963Z,34.80
2017-12-05T00:25:31.945Z,33.60
2017-12-05T00:26:31.930Z,34.60
2017-12-05T00:27:31.921Z,39.10
2017-12-05T00:28:31.909Z,36.70
2017-12-05T00:29:31.879Z,37.40
2017-12-05T00:30:31.866Z,39.20
2017-12-05T00:31:31.851Z,35.90
2017-12-05T00:32:31.829Z,33.50
2017-12-05T00:33:31.814Z,35.30
2017-12-05T00:34:31.795Z,36.40
2017-12-05T00:35:31.779Z,36.80
2017-12-05T00:36:31.762Z,36.40
2017-12-05T00:37:31.747Z,36.80
2017-12-05T00:38:31.729Z,36.00
2017-12-05T00:39:31.722Z,38.30
2017-12-05T00:40:31.698Z,34.80
2017-12-05T00:41:31.680Z,36.60
2017-12-05T00:42:31.668Z,32.70
2017-12-05T00:43:31.646Z,35.80
2017-12-05T00:44:31.636Z,35.00
2017-12-05T00:45:31.612Z,38.80
2017-12-05T00:46:31.597Z,34.00
2017-12-05T00:47:31.587Z,34.60
2017-12-05T00:48:31.570Z,34.60
2017-12-05T00:49:31.546Z,33.10
2017-12-05T00:50:31.532Z,34.90
2017-12-05T00:51:31.515Z,36.20
2017-12-05T00:52:31.496Z,35.20
2017-12-05T00:53:31.481Z,34.80
2017-12-05T00:54:31.468Z,34.50
2017-12-05T00:55:31.447Z,33.70
2017-12-05T00:56:31.435Z,35.30
2017-12-05T00:57:31.413Z,40.80
2017-12-05T00:58:31.401Z,32.40
2017-12-05T00:59:31.384Z,34.60
2017-12-05T01:00:31.364Z,33.30
2017-12-05T01:01:31.354Z,32.70
2017-12-05T01:02:31.329Z,32.80
2017-12-05T01:03:31.314Z,34.50
2017-12-05T01:04:31.307Z,36.60
2017-12-05T01:05:31.279Z,36.50
2017-12-05T01:06:31.264Z,35.80
2017-12-05T01:07:31.245Z,39.10
2017-12-05T01:08:31.228Z,36.10
2017-12-05T01:09:31.213Z,33.60
2017-12-05T01:10:31.201Z,34.50
2017-12-05T01:11:31.180Z,33.60
2017-12-05T01:12:31.162Z,31.10
2017-12-05T01:13:31.150Z,31.00
2017-12-05T01:14:31.128Z,35.70
2017-12-05T01:15:31.112Z,32.90
2017-12-05T01:16:31.095Z,31.80
2017-12-05T01:17:31.084Z,30.80
2017-12-05T01:18:31.062Z,34.00
2017-12-05T01:19:31.046Z,35.60
2017-12-05T01:20:31.030Z,36.00
2017-12-05T01:21:31.022Z,34.20
2017-12-05T01:22:31.001Z,33.70
2017-12-05T01:23:30.978Z,33.60
2017-12-05T01:24:30.963Z,32.40
2017-12-05T01:25:30.947Z,35.80
2017-12-05T01:26:30.929Z,33.60
2017-12-05T01:27:30.912Z,33.90
2017-12-05T01:28:30.901Z,30.10
2017-12-05T01:29:30.884Z,31.10
2017-12-05T01:30:30.864Z,33.60
2017-12-05T01:31:30.845Z,31.60
2017-12-05T01:32:30.832Z,31.90
2017-12-05T01:33:30.813Z,29.50
2017-12-05T01:34:30.796Z,33.70
2017-12-05T01:35:30.783Z,32.70
2017-12-05T01:36:30.768Z,30.20
2017-12-05T01:37:30.745Z,34.90
2017-12-05T01:38:30.730Z,33.10
2017-12-05T01:39:30.713Z,32.70
2017-12-05T01:40:30.708Z,32.30
2017-12-05T01:41:30.680Z,32.80
2017-12-05T01:42:30.665Z,30.40
2017-12-05T01:43:30.644Z,29.90
2017-12-05T01:44:30.636Z,30.00
2017-12-05T01:45:30.613Z,30.50
2017-12-05T01:46:30.600Z,29.60
2017-12-05T01:47:30.578Z,31.70
2017-12-05T01:48:30.571Z,30.30
2017-12-05T01:49:30.549Z,31.50
2017-12-05T01:50:30.530Z,34.30
2017-12-05T01:51:30.518Z,29.60
2017-12-05T01:52:30.496Z,30.00
2017-12-05T01:53:30.480Z,30.00
2017-12-05T01:54:30.464Z,30.60
2017-12-05T01:55:30.445Z,31.00
2017-12-05T01:56:30.429Z,32.70
2017-12-05T01:57:30.415Z,29.30
2017-12-05T01:58:30.394Z,30.60
2017-12-05T01:59:30.387Z,30.10
2017-12-05T02:00:30.363Z,29.20
2017-12-05T02:01:30.347Z,32.20
2017-12-05T02:02:30.340Z,32.00
2017-12-05T02:03:30.316Z,30.00
2017-12-05T02:04:30.301Z,28.50
2017-12-05T02:05:30.285Z,29.20
2017-12-05T02:06:30.267Z,30.00
2017-12-05T02:07:30.244Z,28.80
2017-12-05T02:08:30.228Z,31.50
2017-12-05T02:09:30.213Z,30.60
2017-12-05T02:10:30.197Z,28.40
2017-12-05T02:11:30.179Z,29.50
2017-12-05T02:12:30.171Z,31.70
2017-12-05T02:13:30.145Z,31.10
2017-12-05T02:14:30.128Z,28.90
2017-12-05T02:15:30.116Z,32.70
2017-12-05T02:16:30.098Z,34.20
2017-12-05T02:17:30.085Z,31.10
2017-12-05T02:18:30.066Z,32.80
2017-12-05T02:19:30.045Z,34.00
2017-12-05T02:20:30.029Z,30.70
2017-12-05T02:21:30.015Z,31.40
2017-12-05T02:22:29.994Z,32.50
2017-12-05T02:23:29.978Z,32.40
2017-12-05T02:24:29.963Z,33.20
2017-12-05T02:25:29.952Z,31.20
2017-12-05T02:26:29.927Z,31.20
2017-12-05T02:27:29.911Z,33.00
2017-12-05T02:28:29.894Z,29.50
2017-12-05T02:29:29.878Z,31.20
2017-12-05T02:30:29.867Z,28.40
2017-12-05T02:31:29.843Z,30.60
2017-12-05T02:32:29.831Z,30.90
2017-12-05T02:33:29.810Z,30.20
2017-12-05T02:34:29.800Z,29.00
2017-12-05T02:35:29.776Z,32.00
2017-12-05T02:36:29.764Z,32.20
2017-12-05T02:37:29.746Z,31.60
2017-12-05T02:38:29.728Z,29.40
2017-12-05T02:39:29.709Z,30.50
2017-12-05T02:40:29.694Z,28.90
2017-12-05T02:41:29.682Z,29.10
2017-12-05T02:42:29.662Z,30.50
2017-12-05T02:43:29.644Z,30.70
2017-12-05T02:44:29.627Z,34.30
2017-12-05T02:45:29.610Z,32.70
2017-12-05T02:46:29.593Z,32.60
2017-12-05T02:47:29.576Z,30.60
2017-12-05T02:48:29.560Z,33.40
2017-12-05T02:49:29.542Z,31.80
2017-12-05T02:50:29.526Z,29.80
2017-12-05T02:51:29.509Z,29.60
2017-12-05T02:52:29.495Z,33.30
2017-12-05T02:53:29.477Z,30.80
2017-12-05T02:54:29.458Z,31.20
2017-12-05T02:55:30.294Z,29.50
2017-12-05T02:56:29.427Z,30.30
2017-12-05T02:57:29.409Z,31.40
2017-12-05T02:58:29.391Z,31.30
2017-12-05T02:59:29.376Z,31.00
2017-12-05T03:00:29.359Z,32.90
2017-12-05T03:01:29.351Z,33.10
2017-12-05T03:02:29.326Z,30.40
2017-12-05T03:03:29.310Z,33.30
2017-12-05T03:04:29.294Z,31.00
2017-12-05T03:05:29.281Z,31.30
2017-12-05T03:06:29.258Z,30.30
2017-12-05T03:07:29.243Z,32.10
2017-12-05T03:08:29.225Z,31.30
2017-12-05T03:09:29.212Z,33.10
2017-12-05T03:10:29.191Z,28.50
2017-12-05T03:11:29.177Z,30.30
2017-12-05T03:12:29.159Z,31.60
2017-12-05T03:13:29.148Z,30.40
2017-12-05T03:14:29.129Z,32.50
2017-12-05T03:15:29.114Z,31.60
2017-12-05T03:16:29.092Z,34.20
2017-12-05T03:17:29.077Z,32.00
2017-12-05T03:18:29.058Z,32.50
2017-12-05T03:19:29.046Z,33.30
2017-12-05T03:20:29.026Z,32.40
2017-12-05T03:21:29.010Z,30.10
2017-12-05T03:22:28.993Z,27.20
2017-12-05T03:23:28.974Z,29.50
2017-12-05T03:24:28.958Z,29.90
2017-12-05T03:25:28.946Z,29.80
2017-12-05T03:26:28.934Z,31.40
2017-12-05T03:27:28.909Z,33.00
2017-12-05T03:28:28.898Z,33.30
2017-12-05T03:29:28.885Z,32.40
2017-12-05T03:30:28.859Z,30.70
2017-12-05T03:31:28.840Z,32.40
2017-12-05T03:32:28.825Z,31.70
2017-12-05T03:33:28.808Z,29.50
2017-12-05T03:34:28.791Z,30.90
2017-12-05T03:35:28.774Z,30.10
2017-12-05T03:36:28.760Z,28.50
2017-12-05T03:37:28.742Z,30.10
2017-12-05T03:38:28.722Z,30.10
2017-12-05T03:39:28.706Z,31.00
2017-12-05T03:40:28.696Z,31.80
2017-12-05T03:41:28.673Z,33.40
2017-12-05T03:42:28.663Z,31.40
2017-12-05T03:43:28.640Z,28.70
2017-12-05T03:44:28.623Z,32.30
2017-12-05T03:45:28.607Z,32.40
2017-12-05T03:46:28.590Z,31.60
2017-12-05T03:47:28.573Z,34.70
2017-12-05T03:48:28.564Z,32.00
2017-12-05T03:49:28.541Z,29.40
2017-12-05T03:50:28.529Z,30.10
2017-12-05T03:51:28.522Z,31.00
2017-12-05T03:52:28.489Z,28.50
2017-12-05T03:53:28.476Z,26.60
2017-12-05T03:54:28.457Z,32.10
2017-12-05T03:55:28.443Z,29.00
2017-12-05T03:56:28.429Z,25.60
2017-12-05T03:57:28.408Z,27.50
2017-12-05T03:58:28.396Z,27.60
2017-12-05T03:59:28.376Z,26.30
2017-12-05T04:00:28.359Z,27.10
2017-12-05T04:01:28.341Z,28.70
2017-12-05T04:02:28.325Z,29.80
2017-12-05T04:03:28.314Z,27.70
2017-12-05T04:04:28.291Z,28.30
2017-12-05T04:05:28.275Z,27.50
2017-12-05T04:06:28.258Z,26.10
2017-12-05T04:07:28.246Z,30.10
2017-12-05T04:08:28.225Z,30.00
2017-12-05T04:09:28.211Z,29.00
2017-12-05T04:10:28.191Z,31.10
2017-12-05T04:11:28.176Z,30.90
2017-12-05T04:12:28.161Z,31.80
2017-12-05T04:13:28.149Z,32.40
2017-12-05T04:14:28.131Z,28.00
2017-12-05T04:15:28.114Z,29.90
2017-12-05T04:16:28.099Z,26.90
2017-12-05T04:17:28.081Z,28.40
2017-12-05T04:18:28.058Z,27.00
2017-12-05T04:19:28.043Z,31.20
2017-12-05T04:20:28.028Z,32.20
2017-12-05T04:21:28.010Z,31.80
2017-12-05T04:22:27.993Z,31.00
2017-12-05T04:23:27.976Z,31.60
2017-12-05T04:24:27.966Z,32.00
2017-12-05T04:25:27.945Z,33.00
2017-12-05T04:26:27.928Z,31.60
2017-12-05T04:27:27.910Z,30.30
2017-12-05T04:28:27.897Z,27.50
2017-12-05T04:29:27.876Z,31.60
2017-12-05T04:30:27.866Z,33.30
2017-12-05T04:31:27.841Z,32.20
2017-12-05T04:32:27.826Z,32.10
2017-12-05T04:33:27.817Z,35.40
2017-12-05T04:34:27.792Z,33.10
2017-12-05T04:35:27.775Z,28.80
2017-12-05T04:36:27.759Z,30.00
2017-12-05T04:37:27.751Z,29.40
2017-12-05T04:38:27.725Z,28.00
2017-12-05T04:39:27.709Z,29.90
2017-12-05T04:40:27.698Z,32.40
2017-12-05T04:41:27.680Z,32.70
2017-12-05T04:42:27.664Z,29.10
2017-12-05T04:43:27.644Z,34.30
2017-12-05T04:44:27.627Z,30.50
2017-12-05T04:45:27.610Z,27.80
2017-12-05T04:46:27.593Z,31.60
2017-12-05T04:47:27.575Z,30.40
2017-12-05T04:48:27.561Z,30.90
2017-12-05T04:49:27.543Z,29.20
2017-12-05T04:50:27.526Z,31.40
2017-12-05T04:51:27.556Z,32.70
2017-12-05T04:52:27.493Z,30.80
2017-12-05T04:53:27.475Z,35.50
2017-12-05T04:54:27.457Z,32.80
2017-12-05T04:55:27.443Z,30.40
2017-12-05T04:56:27.425Z,33.70
2017-12-05T04:57:27.408Z,31.90
2017-12-05T04:58:27.391Z,30.10
2017-12-05T04:59:27.374Z,31.80
2017-12-05T05:00:27.358Z,33.30
2017-12-05T05:01:27.342Z,33.20
2017-12-05T05:02:27.327Z,33.40
2017-12-05T05:03:27.315Z,30.80
2017-12-05T05:04:27.296Z,33.70
2017-12-05T05:05:27.276Z,32.10
2017-12-05T05:06:27.257Z,33.00
2017-12-05T05:07:27.238Z,30.90
2017-12-05T05:08:27.229Z,34.00
2017-12-05T05:09:27.205Z,30.20
2017-12-05T05:10:27.193Z,29.20
2017-12-05T05:11:27.171Z,33.00
2017-12-05T05:12:27.154Z,26.50
2017-12-05T05:13:27.144Z,25.60
2017-12-05T05:14:27.120Z,25.30
2017-12-05T05:15:27.104Z,23.80
2017-12-05T05:16:27.089Z,24.70
2017-12-05T05:17:27.123Z,21.90
2017-12-05T05:18:27.057Z,22.60
2017-12-05T05:19:27.038Z,23.80
2017-12-05T05:20:27.020Z,24.10
2017-12-05T05:21:27.002Z,21.50
2017-12-05T05:22:26.983Z,23.30
2017-12-05T05:23:26.966Z,22.50
2017-12-05T05:24:26.951Z,23.60
2017-12-05T05:25:26.939Z,25.70
2017-12-05T05:26:26.916Z,22.60
2017-12-05T05:27:26.897Z,21.90
2017-12-05T05:28:26.882Z,21.50
2017-12-05T05:29:26.871Z,23.20
2017-12-05T05:30:26.845Z,24.30
2017-12-05T05:31:26.829Z,25.90
2017-12-05T05:32:26.813Z,23.10
2017-12-05T05:33:26.801Z,22.30
2017-12-05T05:34:26.782Z,26.20
2017-12-05T05:35:26.759Z,22.20
2017-12-05T05:36:26.742Z,22.70
2017-12-05T05:37:26.725Z,21.70
2017-12-05T05:38:26.712Z,23.10
2017-12-05T05:39:26.690Z,23.50
2017-12-05T05:40:26.678Z,28.70
2017-12-05T05:41:26.655Z,23.60
2017-12-05T05:42:26.642Z,23.60
2017-12-05T05:43:26.623Z,24.30
2017-12-05T05:44:26.604Z,24.40
2017-12-05T05:45:26.596Z,25.40
2017-12-05T05:46:26.568Z,25.60
2017-12-05T05:47:26.553Z,26.70
2017-12-05T05:48:26.542Z,27.60
2017-12-05T05:49:26.521Z,27.70
2017-12-05T05:50:26.504Z,25.60
2017-12-05T05:51:26.480Z,25.00
2017-12-05T05:52:26.462Z,30.80
2017-12-05T05:53:26.447Z,26.50
2017-12-05T05:54:26.428Z,25.70
2017-12-05T05:55:26.409Z,22.50
2017-12-05T05:56:26.401Z,22.10
2017-12-05T05:57:26.376Z,22.90
2017-12-05T05:58:26.360Z,24.70
2017-12-05T05:59:26.342Z,23.40
2017-12-05T06:00:26.323Z,24.70
2017-12-05T06:01:26.310Z,26.80
2017-12-05T06:02:26.292Z,24.90
2017-12-05T06:03:26.274Z,22.50
2017-12-05T06:04:26.252Z,22.40
2017-12-05T06:05:26.233Z,25.60
2017-12-05T06:06:26.220Z,29.60
2017-12-05T06:07:26.197Z,29.40
2017-12-05T06:08:26.185Z,23.70
2017-12-05T06:09:26.163Z,71.10
2017-12-05T06:10:26.144Z,26.00
2017-12-05T06:11:26.126Z,23.60
2017-12-05T06:12:26.111Z,25.50
2017-12-05T06:13:26.097Z,22.70
2017-12-05T06:14:26.072Z,22.20
2017-12-05T06:15:26.057Z,24.10
2017-12-05T06:16:26.043Z,23.80
2017-12-05T06:17:26.021Z,20.60
2017-12-05T06:18:26.007Z,22.70
2017-12-05T06:19:25.989Z,22.10
2017-12-05T06:20:25.968Z,22.10
2017-12-05T06:21:25.948Z,21.40
2017-12-05T06:22:25.938Z,22.80
2017-12-05T06:23:25.913Z,21.80
2017-12-05T06:24:25.896Z,21.50
2017-12-05T06:25:25.878Z,21.00
2017-12-05T06:26:25.859Z,19.20
2017-12-05T06:27:25.846Z,18.70
2017-12-05T06:28:25.827Z,21.20
2017-12-05T06:29:25.809Z,19.30
2017-12-05T06:30:25.798Z,18.50
2017-12-05T06:31:25.775Z,20.60
2017-12-05T06:32:25.762Z,19.60
2017-12-05T06:33:25.741Z,21.70
2017-12-05T06:34:25.725Z,22.00
2017-12-05T06:35:25.705Z,23.00
2017-12-05T06:36:25.685Z,21.90
2017-12-05T06:37:25.669Z,22.20
2017-12-05T06:38:25.655Z,19.50
2017-12-05T06:39:25.632Z,17.60
2017-12-05T06:40:25.615Z,18.70
2017-12-05T06:41:25.597Z,19.60
2017-12-05T06:42:25.585Z,21.40
2017-12-05T06:43:25.568Z,22.00
2017-12-05T06:44:25.547Z,21.70
2017-12-05T06:45:25.527Z,21.20
2017-12-05T06:46:25.511Z,19.50
2017-12-05T06:47:25.493Z,22.40
2017-12-05T06:48:25.477Z,19.80
2017-12-05T06:49:25.458Z,18.70
2017-12-05T06:50:25.441Z,20.00
2017-12-05T06:51:25.427Z,20.90
2017-12-05T06:52:25.412Z,22.90
2017-12-05T06:53:25.394Z,22.10
2017-12-05T06:54:25.371Z,19.90
2017-12-05T06:55:25.354Z,19.70
2017-12-05T06:56:25.338Z,19.20
2017-12-05T06:57:25.319Z,22.30
2017-12-05T06:58:25.309Z,20.60
2017-12-05T06:59:25.286Z,19.40
2017-12-05T07:00:25.270Z,19.10
2017-12-05T07:01:25.251Z,20.90
2017-12-05T07:02:25.235Z,20.90
2017-12-05T07:03:25.220Z,22.80
2017-12-05T07:04:25.198Z,22.40
2017-12-05T07:05:25.188Z,19.00
2017-12-05T07:06:25.166Z,19.90
2017-12-05T07:07:25.152Z,22.40
2017-12-05T07:08:25.128Z,23.60
2017-12-05T07:09:25.117Z,25.80
2017-12-05T07:10:25.099Z,22.00
2017-12-05T07:11:25.080Z,25.10
2017-12-05T07:12:25.062Z,26.30
2017-12-05T07:13:25.046Z,25.40
2017-12-05T07:14:25.034Z,25.20
2017-12-05T07:15:25.011Z,26.80
2017-12-05T07:16:24.996Z,22.90
2017-12-05T07:17:24.976Z,22.30
2017-12-05T07:18:24.958Z,23.00
2017-12-05T07:19:24.942Z,19.00
2017-12-05T07:20:24.929Z,26.50
2017-12-05T07:21:24.908Z,24.20
2017-12-05T07:22:24.894Z,25.40
2017-12-05T07:23:24.870Z,27.60
2017-12-05T07:24:24.860Z,28.00
2017-12-05T07:25:24.836Z,31.10
2017-12-05T07:26:24.820Z,25.20
2017-12-05T07:27:24.804Z,26.00
2017-12-05T07:28:24.788Z,25.60
2017-12-05T07:29:24.776Z,23.90
2017-12-05T07:30:24.757Z,28.40
2017-12-05T07:31:24.734Z,28.00
2017-12-05T07:32:24.718Z,30.80
2017-12-05T07:33:24.707Z,27.90
2017-12-05T07:34:24.685Z,27.80
2017-12-05T07:35:24.672Z,26.70
2017-12-05T07:36:24.651Z,26.90
2017-12-05T07:37:24.636Z,27.50
2017-12-05T07:38:24.615Z,24.40
2017-12-05T07:39:24.598Z,28.60
2017-12-05T07:40:24.583Z,26.40
2017-12-05T07:41:24.576Z,28.00
2017-12-05T07:42:24.550Z,26.40
2017-12-05T07:43:24.539Z,26.10
2017-12-05T07:44:24.515Z,24.20
2017-12-05T07:45:24.500Z,23.00
2017-12-05T07:46:24.480Z,23.30
2017-12-05T07:47:24.471Z,23.90
2017-12-05T07:48:24.448Z,26.80
2017-12-05T07:49:24.433Z,24.60
2017-12-05T07:50:24.413Z,25.50
2017-12-05T07:51:24.397Z,23.40
2017-12-05T07:52:24.382Z,25.10
2017-12-05T07:53:24.372Z,23.90
2017-12-05T07:54:24.354Z,24.70
2017-12-05T07:55:24.332Z,22.80
2017-12-05T07:56:24.314Z,24.70
2017-12-05T07:57:24.297Z,24.90
2017-12-05T07:58:24.281Z,24.40
2017-12-05T07:59:24.262Z,25.40
2017-12-05T08:00:24.245Z,27.30
2017-12-05T08:01:24.234Z,24.50
2017-12-05T08:02:24.213Z,24.20
2017-12-05T08:03:24.194Z,25.00
2017-12-05T08:04:24.178Z,23.00
2017-12-05T08:05:24.163Z,22.80
2017-12-05T08:06:24.149Z,27.80
2017-12-05T08:07:24.133Z,27.20
2017-12-05T08:08:24.122Z,24.70
2017-12-05T08:09:24.100Z,26.80
2017-12-05T08:10:24.075Z,27.00
2017-12-05T08:11:24.064Z,26.20
2017-12-05T08:12:24.043Z,28.80
2017-12-05T08:13:24.026Z,26.20
2017-12-05T08:14:24.009Z,26.90
2017-12-05T08:15:23.994Z,24.30
2017-12-05T08:16:23.976Z,25.10
2017-12-05T08:17:23.959Z,26.10
2017-12-05T08:18:23.942Z,27.10
2017-12-05T08:19:23.930Z,27.70
2017-12-05T08:20:23.915Z,27.50
2017-12-05T08:21:23.898Z,31.30
2017-12-05T08:22:23.877Z,30.70
2017-12-05T08:23:23.864Z,29.00
2017-12-05T08:24:23.843Z,28.30
2017-12-05T08:25:23.828Z,27.70
2017-12-05T08:26:23.808Z,27.50
2017-12-05T08:27:23.799Z,26.40
2017-12-05T08:28:23.778Z,29.00
2017-12-05T08:29:23.766Z,26.90
2017-12-05T08:30:23.746Z,29.60
2017-12-05T08:31:23.724Z,25.30
2017-12-05T08:32:23.709Z,28.80
2017-12-05T08:33:23.701Z,30.80
2017-12-05T08:34:23.680Z,30.30
2017-12-05T08:35:23.657Z,27.40
2017-12-05T08:36:23.639Z,34.20
2017-12-05T08:37:23.629Z,32.40
2017-12-05T08:38:23.615Z,30.20
2017-12-05T08:39:23.597Z,31.10
2017-12-05T08:40:23.578Z,31.70
2017-12-05T08:41:23.565Z,33.00
2017-12-05T08:42:23.544Z,32.10
2017-12-05T08:43:23.522Z,33.50
2017-12-05T08:44:23.507Z,30.70
2017-12-05T08:45:23.490Z,31.60
2017-12-05T08:46:23.471Z,35.20
2017-12-05T08:47:23.459Z,36.10
2017-12-05T08:48:23.440Z,34.10
2017-12-05T08:49:23.428Z,34.10
2017-12-05T08:50:23.406Z,35.20
2017-12-05T08:51:23.394Z,33.30
2017-12-05T08:52:23.381Z,33.60
2017-12-05T08:53:23.355Z,32.70
2017-12-05T08:54:23.345Z,33.40
2017-12-05T08:55:23.323Z,37.80
2017-12-05T08:56:23.307Z,35.70
2017-12-05T08:57:23.290Z,35.10
2017-12-05T08:58:23.272Z,32.90
2017-12-05T08:59:23.261Z,33.60
2017-12-05T09:00:23.238Z,34.20
2017-12-05T09:01:23.222Z,33.20
2017-12-05T09:02:23.211Z,33.70
2017-12-05T09:03:23.193Z,36.10
2017-12-05T09:04:23.174Z,33.80
2017-12-05T09:05:23.158Z,32.40
2017-12-05T09:06:23.139Z,31.90
2017-12-05T09:07:23.122Z,33.70
2017-12-05T09:08:23.116Z,31.20
2017-12-05T09:09:23.096Z,32.70
2017-12-05T09:10:23.071Z,33.30
2017-12-05T09:11:23.061Z,34.20
2017-12-05T09:12:23.041Z,33.70
2017-12-05T09:13:23.023Z,31.80
2017-12-05T09:14:23.006Z,35.10
2017-12-05T09:15:22.989Z,33.10
2017-12-05T09:16:22.979Z,30.60
2017-12-05T09:17:22.963Z,32.20
2017-12-05T09:18:22.940Z,31.10
2017-12-05T09:19:22.924Z,29.20
2017-12-05T09:20:22.912Z,32.30
2017-12-05T09:21:22.891Z,31.60
2017-12-05T09:22:22.876Z,31.90
2017-12-05T09:23:22.858Z,32.70
2017-12-05T09:24:22.839Z,33.50
2017-12-05T09:25:22.826Z,31.80
2017-12-05T09:26:22.811Z,29.80
2017-12-05T09:27:22.791Z,35.10
2017-12-05T09:28:22.774Z,28.80
2017-12-05T09:29:22.758Z,33.20
2017-12-05T09:30:22.741Z,34.20
2017-12-05T09:31:22.727Z,32.80
2017-12-05T09:32:22.710Z,31.70
2017-12-05T09:33:22.694Z,33.40
2017-12-05T09:34:22.676Z,29.20
2017-12-05T09:35:22.662Z,30.90
2017-12-05T09:36:22.644Z,36.50
2017-12-05T09:37:22.630Z,34.40
2017-12-05T09:38:22.613Z,32.40
2017-12-05T09:39:22.596Z,34.30
2017-12-05T09:40:22.582Z,32.40
2017-12-05T09:41:22.565Z,32.30
2017-12-05T09:42:22.588Z,29.80
2017-12-05T09:43:22.531Z,31.50
2017-12-05T09:44:22.521Z,32.10
2017-12-05T09:45:22.510Z,34.10
2017-12-05T09:46:22.481Z,30.20
2017-12-05T09:47:22.474Z,30.90
2017-12-05T09:48:22.456Z,32.40
2017-12-05T09:49:22.435Z,31.70
2017-12-05T09:50:22.424Z,31.20
2017-12-05T09:51:22.407Z,30.60
2017-12-05T09:52:22.428Z,28.20
2017-12-05T09:53:22.409Z,30.30
2017-12-05T09:54:22.359Z,34.10
2017-12-05T09:55:22.342Z,30.10
2017-12-05T09:56:22.330Z,30.20
2017-12-05T09:57:22.307Z,30.40
2017-12-05T09:58:22.294Z,32.80
2017-12-05T09:59:22.274Z,29.60
2017-12-05T10:00:22.262Z,31.30
2017-12-05T10:01:22.243Z,29.70
2017-12-05T10:02:22.283Z,28.30
2017-12-05T10:03:22.253Z,28.50
2017-12-05T10:04:22.252Z,32.10
2017-12-05T10:05:22.222Z,31.90
2017-12-05T10:06:22.208Z,33.30
2017-12-05T10:07:22.201Z,32.90
2017-12-05T10:08:22.182Z,31.10
2017-12-05T10:09:22.166Z,31.10
2017-12-05T10:10:22.096Z,34.70
2017-12-05T10:11:22.087Z,32.00
2017-12-05T10:12:22.064Z,38.50
2017-12-05T10:13:22.054Z,32.30
2017-12-05T10:14:22.078Z,33.20
2017-12-05T10:15:22.073Z,33.00
2017-12-05T10:16:22.051Z,32.20
2017-12-05T10:17:22.031Z,33.10
2017-12-05T10:18:21.967Z,33.30
2017-12-05T10:19:21.961Z,35.20
2017-12-05T10:20:21.941Z,36.10
2017-12-05T10:21:21.928Z,36.30
2017-12-05T10:22:21.923Z,35.20
2017-12-05T10:23:21.895Z,31.40
2017-12-05T10:24:21.881Z,34.10
2017-12-05T10:25:21.866Z,32.10
2017-12-05T10:26:21.889Z,33.60
2017-12-05T10:27:21.875Z,34.30
2017-12-05T10:28:21.859Z,35.10
2017-12-05T10:29:21.851Z,33.20
2017-12-05T10:30:21.839Z,33.10
2017-12-05T10:31:21.817Z,32.30
2017-12-05T10:32:21.794Z,31.60
2017-12-05T10:33:21.776Z,31.10
2017-12-05T10:34:21.722Z,30.40
2017-12-05T10:35:21.698Z,30.80
2017-12-05T10:36:21.682Z,33.00
2017-12-05T10:37:21.674Z,31.60
2017-12-05T10:38:21.651Z,32.20
2017-12-05T10:39:21.644Z,32.80
2017-12-05T10:40:21.628Z,37.20
2017-12-05T10:41:21.603Z,33.10
2017-12-05T10:42:21.643Z,32.40
2017-12-05T10:43:21.619Z,30.50
2017-12-05T10:44:21.601Z,29.80
2017-12-05T10:45:21.573Z,31.10
2017-12-05T10:46:21.528Z,33.10
2017-12-05T10:47:21.509Z,31.20
2017-12-05T10:48:21.499Z,30.20
2017-12-05T10:49:21.476Z,31.00
2017-12-05T10:50:21.505Z,31.30
2017-12-05T10:51:21.505Z,32.70
2017-12-05T10:52:21.477Z,28.60
2017-12-05T10:53:21.470Z,28.40
2017-12-05T10:54:21.445Z,28.90
2017-12-05T10:55:21.429Z,29.90
2017-12-05T10:56:21.465Z,31.00
2017-12-05T10:57:21.404Z,29.10
2017-12-05T10:58:21.355Z,30.10
2017-12-05T10:59:21.325Z,31.70
2017-12-05T11:00:21.318Z,29.50
2017-12-05T11:01:21.293Z,27.30
2017-12-05T11:02:21.271Z,29.70
2017-12-05T11:03:21.257Z,27.60
2017-12-05T11:04:21.242Z,27.90
2017-12-05T11:05:21.225Z,28.90
2017-12-05T11:06:21.250Z,27.80
2017-12-05T11:07:21.235Z,29.60
2017-12-05T11:08:21.226Z,29.90
2017-12-05T11:09:21.215Z,30.30
2017-12-05T11:10:21.206Z,28.10
2017-12-05T11:11:21.188Z,29.60
2017-12-05T11:12:21.177Z,33.10
2017-12-05T11:13:21.503Z,29.60
2017-12-05T11:14:21.085Z,31.70
2017-12-05T11:15:21.068Z,32.00
2017-12-05T11:16:21.052Z,31.80
2017-12-05T11:17:21.042Z,31.60
2017-12-05T11:18:21.064Z,30.00
2017-12-05T11:19:21.056Z,28.60
2017-12-05T11:20:21.048Z,31.20
2017-12-05T11:21:21.023Z,31.60
2017-12-05T11:22:20.959Z,29.30
2017-12-05T11:23:20.948Z,33.20
2017-12-05T11:24:20.931Z,33.30
2017-12-05T11:25:20.915Z,32.00
2017-12-05T11:26:20.897Z,34.10
2017-12-05T11:27:20.887Z,36.90
2017-12-05T11:28:20.865Z,36.80
2017-12-05T11:29:20.850Z,35.00
2017-12-05T11:30:20.890Z,35.30
2017-12-05T11:31:20.875Z,36.20
2017-12-05T11:32:20.848Z,37.50
2017-12-05T11:33:20.839Z,38.60
2017-12-05T11:34:20.834Z,35.80
2017-12-05T11:35:20.812Z,36.70
2017-12-05T11:36:20.803Z,40.60
2017-12-05T11:37:20.775Z,37.60
2017-12-05T11:38:20.721Z,41.10
2017-12-05T11:39:20.693Z,38.40
2017-12-05T11:40:20.680Z,37.80
2017-12-05T11:41:20.664Z,37.40
2017-12-05T11:42:20.650Z,36.80
2017-12-05T11:43:20.632Z,36.80
2017-12-05T11:44:20.616Z,38.80
2017-12-05T11:45:20.612Z,39.00
2017-12-05T11:46:20.626Z,36.70
2017-12-05T11:47:20.618Z,35.90
2017-12-05T11:48:20.606Z,37.60
2017-12-05T11:49:20.589Z,33.30
2017-12-05T11:50:20.528Z,33.90
2017-12-05T11:51:20.506Z,34.60
2017-12-05T11:52:20.503Z,36.40
2017-12-05T11:53:20.480Z,34.50
2017-12-05T11:54:20.507Z,36.90
2017-12-05T11:55:20.501Z,33.80
2017-12-05T11:56:20.486Z,34.10
2017-12-05T11:57:20.464Z,35.70
2017-12-05T11:58:20.452Z,33.50
2017-12-05T11:59:20.793Z,34.80
2017-12-05T12:00:20.413Z,33.70
2017-12-05T12:01:20.394Z,37.00
2017-12-05T12:02:20.360Z,41.50
2017-12-05T12:03:20.329Z,38.40
2017-12-05T12:04:20.316Z,38.70
2017-12-05T12:05:20.293Z,37.80
2017-12-05T12:06:20.277Z,37.00
2017-12-05T12:07:20.270Z,39.00
2017-12-05T12:08:20.276Z,34.00
2017-12-05T12:09:20.242Z,36.60
2017-12-05T12:10:20.266Z,38.50
2017-12-05T12:11:20.301Z,35.40
2017-12-05T12:12:20.234Z,36.10
2017-12-05T12:13:20.222Z,35.70
2017-12-05T12:14:20.215Z,34.90
2017-12-05T12:15:20.193Z,36.50
2017-12-05T12:16:20.172Z,36.40
2017-12-05T12:17:20.149Z,36.70
2017-12-05T12:18:20.119Z,36.30
2017-12-05T12:19:20.115Z,35.70
2017-12-05T12:20:20.094Z,32.20
2017-12-05T12:21:20.078Z,38.30
2017-12-05T12:22:20.091Z,37.30
2017-12-05T12:23:20.071Z,34.60
2017-12-05T12:24:20.052Z,35.50
2017-12-05T12:25:20.027Z,35.50
2017-12-05T12:26:19.999Z,37.00
2017-12-05T12:27:19.971Z,37.80
2017-12-05T12:28:19.963Z,36.40
2017-12-05T12:29:19.958Z,35.10
2017-12-05T12:30:19.925Z,37.40
2017-12-05T12:31:19.930Z,36.90
2017-12-05T12:32:19.916Z,34.70
2017-12-05T12:33:19.918Z,33.50
2017-12-05T12:34:19.904Z,33.30
2017-12-05T12:35:19.892Z,36.60
2017-12-05T12:36:19.864Z,35.70
2017-12-05T12:37:19.849Z,36.40
2017-12-05T12:38:19.834Z,34.30
2017-12-05T12:39:20.021Z,39.80
2017-12-05T12:40:19.810Z,34.50
2017-12-05T12:41:19.800Z,35.60
2017-12-05T12:42:19.766Z,36.40
2017-12-05T12:43:19.755Z,40.40
2017-12-05T12:44:19.737Z,39.10
2017-12-05T12:45:19.733Z,38.40
2017-12-05T12:46:19.715Z,39.60
2017-12-05T12:47:19.694Z,41.90
2017-12-05T12:48:19.666Z,39.30
2017-12-05T12:49:19.666Z,40.00
2017-12-05T12:50:19.651Z,40.30
2017-12-05T12:51:19.645Z,42.40
2017-12-05T12:52:19.630Z,41.60